Time;durP1;ratioP1;P1;durP2;ratioP2;P2;SDS_P1;SDS_P2;PMS_P1;PMS_P2;Temp;Humidity;BMP_temperature;BMP_pressure;BME280_temperature;BME280_humidity;BME280_pressure;Samples;Min_cycle;Max_cycle;Signal;HPM_P1;HPM_P2
2021/12/31 00:00:14;;;;;;;16.00;9.80;;;3.60;79.40;;;;;;5096415;28;20373;-23
2021/12/31 00:02:40;;;;;;;35.30;13.20;;;3.50;79.50;;;;;;5096239;28;20062;-23
2021/12/31 00:05:08;;;;;;;27.98;11.23;;;3.50;79.40;;;;;;5096595;28;20028;-23
2021/12/31 00:07:34;;;;;;;27.70;12.93;;;3.50;79.30;;;;;;5096539;28;20541;-23
2021/12/31 00:10:01;;;;;;;46.40;16.27;;;3.50;79.60;;;;;;5096445;28;20541;-24
2021/12/31 00:12:29;;;;;;;71.68;17.10;;;3.40;79.80;;;;;;5096165;28;20036;-24
2021/12/31 00:14:56;;;;;;;48.90;17.50;;;3.40;79.90;;;;;;5096543;28;20024;-23
2021/12/31 00:17:22;;;;;;;58.33;13.70;;;3.40;80.10;;;;;;5096029;28;20107;-23
2021/12/31 00:19:58;;;;;;;16.70;9.93;;;3.30;79.90;;;;;;5095047;28;20028;-23
2021/12/31 00:25:09;;;;;;;42.78;16.27;;;3.30;79.80;;;;;;5096007;28;20020;-23
2021/12/31 00:27:36;;;;;;;35.08;12.82;;;3.30;79.80;;;;;;5095854;28;20028;-23
2021/12/31 00:30:02;;;;;;;21.55;13.07;;;3.30;79.70;;;;;;5096097;28;20024;-23
2021/12/31 00:32:28;;;;;;;21.77;13.13;;;3.30;79.90;;;;;;5095756;28;20032;-23
2021/12/31 00:34:54;;;;;;;18.73;10.82;;;3.30;79.60;;;;;;5096259;28;20493;-23
2021/12/31 00:37:31;;;;;;;17.60;8.63;;;3.30;79.50;;;;;;5095629;28;20024;-23
2021/12/31 00:39:58;;;;;;;16.77;9.32;;;3.30;79.40;;;;;;5096005;28;20028;-23
2021/12/31 00:42:24;;;;;;;29.85;14.95;;;3.30;79.40;;;;;;5095492;28;20062;-22
2021/12/31 00:44:51;;;;;;;23.67;10.45;;;3.30;79.40;;;;;;5095560;28;20403;-23
2021/12/31 00:47:17;;;;;;;16.75;9.48;;;3.30;79.40;;;;;;5095984;28;20114;-23
2021/12/31 00:49:43;;;;;;;17.02;7.93;;;3.30;79.40;;;;;;5095530;28;20535;-23
2021/12/31 00:52:10;;;;;;;9.07;5.88;;;3.30;79.20;;;;;;5093959;28;20044;-23
2021/12/31 00:54:36;;;;;;;22.05;11.32;;;3.30;79.10;;;;;;5095141;28;20376;-23
2021/12/31 00:57:04;;;;;;;18.48;11.13;;;3.20;79.20;;;;;;5094085;28;20494;-23
2021/12/31 00:59:31;;;;;;;26.15;10.85;;;3.20;79.20;;;;;;5095572;28;20041;-23
2021/12/31 01:02:03;;;;;;;26.88;12.32;;;3.20;79.20;;;;;;5095259;28;20115;-23
2021/12/31 01:04:31;;;;;;;15.77;9.38;;;3.10;79.30;;;;;;5095205;28;20028;-23
2021/12/31 01:06:58;;;;;;;32.70;12.13;;;3.10;79.20;;;;;;5095111;28;20111;-23
2021/12/31 01:09:26;;;;;;;9.32;5.60;;;3.10;79.30;;;;;;5095060;28;20060;-23
2021/12/31 01:11:52;;;;;;;6.93;4.63;;;3.10;79.10;;;;;;5093796;28;20115;-23
2021/12/31 01:14:30;;;;;;;28.20;10.75;;;3.20;79.10;;;;;;5094723;28;20446;-22
2021/12/31 01:17:02;;;;;;;26.55;9.32;;;3.20;79.00;;;;;;5094949;28;20529;-23
2021/12/31 01:19:46;;;;;;;7.65;4.60;;;3.20;79.00;;;;;;5095107;28;20036;-23
2021/12/31 01:22:24;;;;;;;21.00;9.77;;;3.20;78.80;;;;;;5095186;28;20028;-23
2021/12/31 01:24:50;;;;;;;15.45;8.25;;;3.20;78.70;;;;;;5094823;28;20027;-23
2021/12/31 01:27:16;;;;;;;7.75;4.95;;;3.20;78.90;;;;;;5095006;28;20024;-22
2021/12/31 01:29:43;;;;;;;21.25;7.82;;;3.20;78.70;;;;;;5094689;28;20020;-23
2021/12/31 01:32:10;;;;;;;9.98;5.90;;;3.20;78.90;;;;;;5093752;28;20383;-23
2021/12/31 01:34:37;;;;;;;56.05;14.18;;;3.20;78.70;;;;;;5094539;28;20061;-22
2021/12/31 01:37:05;;;;;;;28.67;9.45;;;3.10;78.80;;;;;;5094790;28;20036;-22
2021/12/31 01:39:31;;;;;;;14.45;8.27;;;3.10;78.90;;;;;;5094766;28;20066;-22
2021/12/31 01:41:59;;;;;;;31.25;12.70;;;3.10;78.90;;;;;;5094865;28;20089;-22
2021/12/31 01:44:39;;;;;;;7.30;4.18;;;3.10;78.90;;;;;;5094796;28;20031;-22
2021/12/31 01:47:12;;;;;;;10.77;6.20;;;3.10;78.70;;;;;;5094380;28;20028;-22
2021/12/31 01:49:42;;;;;;;22.60;10.65;;;3.10;78.70;;;;;;5094231;28;20491;-22
2021/12/31 01:52:10;;;;;;;15.02;7.53;;;3.10;78.70;;;;;;5094049;28;20412;-22
2021/12/31 01:54:38;;;;;;;9.73;4.95;;;3.20;78.80;;;;;;5092694;28;20035;-22
2021/12/31 01:57:10;;;;;;;13.77;6.13;;;3.10;78.60;;;;;;5094101;28;20150;-22
2021/12/31 01:59:38;;;;;;;7.60;4.30;;;3.10;78.40;;;;;;5094092;28;20039;-22
2021/12/31 02:02:06;;;;;;;12.25;5.15;;;3.10;78.40;;;;;;5094042;28;20028;-21
2021/12/31 02:04:34;;;;;;;7.32;4.38;;;3.10;78.30;;;;;;5094089;28;20030;-21
2021/12/31 02:07:00;;;;;;;9.32;5.20;;;3.10;78.20;;;;;;5093941;28;20039;-22
2021/12/31 02:09:27;;;;;;;21.30;9.88;;;3.10;78.10;;;;;;5094103;28;20028;-23
2021/12/31 02:11:55;;;;;;;8.20;4.13;;;3.10;78.20;;;;;;5094172;28;20036;-22
2021/12/31 02:14:24;;;;;;;35.33;10.82;;;3.10;78.10;;;;;;5093629;28;20078;-22
2021/12/31 02:16:51;;;;;;;5.13;3.65;;;3.00;78.10;;;;;;5093800;28;20069;-22
2021/12/31 02:19:26;;;;;;;12.20;7.40;;;3.00;78.10;;;;;;5094307;28;20429;-22
2021/12/31 02:21:53;;;;;;;12.65;7.25;;;3.00;78.10;;;;;;5093772;28;20042;-22
2021/12/31 02:24:21;;;;;;;7.78;4.97;;;3.00;78.10;;;;;;5093796;28;20074;-22
2021/12/31 02:26:47;;;;;;;9.40;5.75;;;3.00;78.10;;;;;;5092699;28;20503;-22
2021/12/31 02:29:13;;;;;;;13.50;7.60;;;3.00;77.90;;;;;;5093603;28;20028;-23
2021/12/31 02:31:39;;;;;;;11.98;6.97;;;3.00;78.00;;;;;;5093964;28;20052;-22
2021/12/31 02:34:05;;;;;;;16.00;8.55;;;3.00;77.90;;;;;;5093257;28;20447;-24
2021/12/31 02:36:31;;;;;;;21.38;9.60;;;3.00;77.90;;;;;;5092160;28;20024;-22
2021/12/31 02:38:57;;;;;;;13.95;7.97;;;3.00;78.10;;;;;;5093504;28;20433;-22
2021/12/31 02:41:24;;;;;;;24.40;10.93;;;2.90;78.20;;;;;;5093787;28;20024;-23
2021/12/31 02:43:50;;;;;;;10.55;5.70;;;2.90;78.20;;;;;;5093370;28;20031;-22
2021/12/31 02:46:16;;;;;;;11.85;6.43;;;2.90;78.10;;;;;;5093117;28;20391;-22
2021/12/31 02:48:43;;;;;;;16.27;8.35;;;2.80;78.10;;;;;;5092003;28;20399;-24
2021/12/31 02:51:09;;;;;;;18.85;8.38;;;2.80;78.20;;;;;;5093616;28;20180;-23
2021/12/31 02:53:40;;;;;;;23.40;8.90;;;2.80;78.30;;;;;;5093169;28;20494;-22
2021/12/31 02:56:11;;;;;;;26.20;9.70;;;2.80;78.50;;;;;;5093252;28;20459;-23
2021/12/31 02:58:39;;;;;;;22.85;9.93;;;2.80;78.70;;;;;;5093090;28;20484;-23
2021/12/31 03:01:07;;;;;;;19.77;7.63;;;2.80;79.30;;;;;;5093392;28;20024;-23
2021/12/31 03:03:35;;;;;;;32.83;9.90;;;2.80;79.20;;;;;;5093436;28;20077;-22
2021/12/31 03:06:02;;;;;;;30.45;9.80;;;2.80;79.20;;;;;;5091935;28;20031;-23
2021/12/31 03:08:36;;;;;;;23.35;9.15;;;2.80;79.50;;;;;;5093133;28;20069;-24
2021/12/31 03:11:04;;;;;;;13.03;6.87;;;2.80;79.00;;;;;;5093443;28;20394;-23
2021/12/31 03:13:32;;;;;;;7.05;4.20;;;2.80;79.20;;;;;;5092058;28;20576;-22
2021/12/31 03:15:59;;;;;;;24.73;6.50;;;2.80;79.00;;;;;;5091831;28;20111;-23
2021/12/31 03:18:26;;;;;;;15.60;7.35;;;2.80;78.80;;;;;;5092724;28;20028;-22
2021/12/31 03:21:09;;;;;;;5.78;3.28;;;2.80;78.80;;;;;;5093646;28;20020;-22
2021/12/31 03:23:36;;;;;;;6.13;3.80;;;2.80;78.70;;;;;;5093350;28;20032;-23
2021/12/31 03:26:02;;;;;;;3.20;2.55;;;2.80;78.70;;;;;;5093268;28;20020;-23
2021/12/31 03:28:28;;;;;;;10.02;5.22;;;2.80;78.60;;;;;;5091503;28;20069;-23
2021/12/31 03:30:55;;;;;;;7.40;4.72;;;2.80;78.60;;;;;;5093218;28;20030;-24
2021/12/31 03:33:21;;;;;;;9.18;4.57;;;2.90;78.50;;;;;;5093040;28;20089;-23
2021/12/31 03:35:47;;;;;;;19.80;6.95;;;2.90;78.50;;;;;;5092912;28;20025;-23
2021/12/31 03:38:14;;;;;;;8.48;4.32;;;2.90;78.60;;;;;;5092636;28;20035;-23
2021/12/31 03:40:42;;;;;;;9.63;5.72;;;2.90;78.50;;;;;;5093163;28;20035;-22
2021/12/31 03:43:08;;;;;;;11.13;5.85;;;3.00;78.50;;;;;;5093117;28;20020;-23
2021/12/31 03:45:36;;;;;;;3.75;3.03;;;3.00;78.30;;;;;;5092767;28;20052;-23
2021/12/31 03:48:03;;;;;;;20.30;8.43;;;3.00;78.30;;;;;;5092757;28;20031;-23
2021/12/31 03:50:29;;;;;;;3.95;2.85;;;3.00;78.30;;;;;;5092441;28;20028;-23
2021/12/31 03:52:55;;;;;;;4.43;3.05;;;3.00;78.20;;;;;;5092401;28;20044;-24
2021/12/31 03:55:21;;;;;;;5.55;3.00;;;3.00;78.20;;;;;;5093467;28;20081;-22
2021/12/31 03:57:48;;;;;;;12.18;6.90;;;3.00;78.10;;;;;;5096441;28;20034;-23
2021/12/31 04:00:14;;;;;;;8.68;4.50;;;3.10;78.10;;;;;;5096157;28;20032;-24
2021/12/31 04:02:41;;;;;;;5.97;3.70;;;3.00;78.10;;;;;;5078794;28;20432;-23
2021/12/31 04:05:08;;;;;;;7.53;4.47;;;3.10;78.10;;;;;;5096223;28;20030;-24
2021/12/31 04:07:34;;;;;;;5.78;3.67;;;3.10;78.10;;;;;;5096507;28;20035;-23
2021/12/31 04:10:00;;;;;;;3.20;2.47;;;3.10;78.10;;;;;;5096199;28;20039;-24
2021/12/31 04:12:26;;;;;;;6.22;3.80;;;3.10;78.00;;;;;;5096214;28;20032;-24
2021/12/31 04:14:52;;;;;;;4.95;3.50;;;3.20;78.00;;;;;;5096741;28;20054;-24
2021/12/31 04:17:18;;;;;;;5.60;3.78;;;3.20;78.00;;;;;;5096765;28;20430;-24
2021/12/31 04:19:49;;;;;;;4.85;3.33;;;3.20;77.90;;;;;;5095894;28;20543;-23
2021/12/31 04:22:15;;;;;;;9.98;4.28;;;3.20;77.90;;;;;;5095966;28;20024;-24
2021/12/31 04:27:10;;;;;;;12.38;5.72;;;3.20;77.60;;;;;;5095966;28;20125;-23
2021/12/31 04:29:36;;;;;;;8.80;4.30;;;3.20;77.60;;;;;;5096141;28;20089;-24
2021/12/31 04:32:04;;;;;;;10.30;4.45;;;3.20;77.50;;;;;;5096023;28;20020;-23
2021/12/31 04:34:30;;;;;;;5.00;3.10;;;3.30;77.50;;;;;;5095514;28;20084;-24
2021/12/31 04:36:57;;;;;;;10.32;5.70;;;3.20;77.50;;;;;;5096051;28;20032;-23
2021/12/31 04:39:23;;;;;;;52.70;11.63;;;3.20;77.50;;;;;;5095953;28;20034;-23
2021/12/31 04:41:50;;;;;;;45.72;8.80;;;3.20;77.60;;;;;;5095855;28;20111;-24
2021/12/31 04:44:16;;;;;;;20.20;6.60;;;3.20;77.60;;;;;;5095538;28;20020;-23
2021/12/31 04:46:42;;;;;;;9.18;4.93;;;3.20;77.70;;;;;;5095846;28;20097;-23
2021/12/31 04:49:08;;;;;;;16.02;6.75;;;3.20;77.60;;;;;;5095587;28;20508;-24
2021/12/31 04:51:35;;;;;;;29.80;7.97;;;3.20;77.60;;;;;;5095188;28;20075;-23
2021/12/31 04:54:01;;;;;;;33.20;10.13;;;3.20;77.60;;;;;;5095278;28;20024;-24
2021/12/31 04:56:27;;;;;;;8.25;5.20;;;3.20;77.80;;;;;;5095209;28;20031;-23
2021/12/31 04:58:53;;;;;;;16.77;5.88;;;3.10;77.90;;;;;;5095301;28;20032;-23
2021/12/31 05:01:21;;;;;;;8.80;4.70;;;3.10;77.80;;;;;;5095938;28;20028;-23
2021/12/31 05:03:48;;;;;;;12.20;4.68;;;3.10;77.80;;;;;;5094265;28;20028;-23
2021/12/31 05:06:15;;;;;;;22.77;6.95;;;3.00;77.70;;;;;;5094708;28;20069;-24
2021/12/31 05:08:42;;;;;;;19.10;7.53;;;3.00;77.80;;;;;;5095145;28;20028;-23
2021/12/31 05:11:08;;;;;;;14.65;6.82;;;2.90;78.10;;;;;;5095057;28;20028;-23
2021/12/31 05:13:34;;;;;;;26.40;7.20;;;2.90;78.10;;;;;;5095525;28;20039;-23
2021/12/31 05:16:03;;;;;;;23.85;7.10;;;2.90;78.10;;;;;;5095275;28;20024;-23
2021/12/31 05:18:30;;;;;;;16.15;6.00;;;2.90;78.30;;;;;;5094669;28;20028;-23
2021/12/31 05:20:56;;;;;;;22.52;7.28;;;2.80;78.30;;;;;;5093676;28;20115;-24
2021/12/31 05:23:23;;;;;;;22.77;7.38;;;2.80;78.30;;;;;;5093601;28;20024;-23
2021/12/31 05:25:49;;;;;;;15.65;7.78;;;2.80;78.20;;;;;;5093586;28;20028;-24
2021/12/31 05:28:16;;;;;;;24.92;8.75;;;2.70;78.30;;;;;;5094662;28;20028;-23
2021/12/31 05:30:42;;;;;;;17.20;5.95;;;2.70;78.20;;;;;;5076739;28;20563;-23
2021/12/31 05:33:07;;;;;;;7.35;4.50;;;2.60;78.30;;;;;;5094764;28;20115;-23
2021/12/31 05:35:34;;;;;;;16.38;6.97;;;2.60;78.40;;;;;;5094408;28;20034;-23
2021/12/31 05:38:00;;;;;;;16.20;7.30;;;2.60;78.40;;;;;;5094649;28;20017;-24
2021/12/31 05:40:26;;;;;;;9.85;5.93;;;2.50;78.40;;;;;;5094349;28;20035;-23
2021/12/31 05:42:53;;;;;;;7.57;4.30;;;2.50;78.50;;;;;;5094440;28;20543;-24
2021/12/31 05:45:20;;;;;;;22.58;9.48;;;2.50;78.40;;;;;;5094384;28;20035;-24
2021/12/31 05:47:48;;;;;;;25.20;9.15;;;2.50;78.50;;;;;;5094297;28;20024;-23
2021/12/31 05:50:28;;;;;;;13.48;7.35;;;2.50;78.50;;;;;;5094406;28;20032;-24
2021/12/31 05:52:57;;;;;;;15.50;7.28;;;2.50;78.50;;;;;;5093998;28;20052;-23
2021/12/31 05:55:25;;;;;;;22.58;8.02;;;2.50;78.60;;;;;;5094526;28;20036;-24
2021/12/31 05:57:51;;;;;;;16.48;8.73;;;2.50;78.60;;;;;;5094428;28;20020;-23
2021/12/31 06:00:18;;;;;;;18.58;9.00;;;2.50;78.60;;;;;;5092683;28;20483;-23
2021/12/31 06:02:44;;;;;;;23.30;9.02;;;2.50;78.80;;;;;;5094008;28;20069;-23
2021/12/31 06:05:10;;;;;;;15.05;7.18;;;2.40;78.70;;;;;;5094172;28;20053;-23
2021/12/31 06:07:36;;;;;;;20.35;8.65;;;2.40;78.70;;;;;;5093990;28;20476;-23
2021/12/31 06:10:03;;;;;;;12.15;6.82;;;2.40;78.70;;;;;;5094248;28;20030;-23
2021/12/31 06:12:30;;;;;;;12.35;6.70;;;2.40;78.80;;;;;;5093974;28;20101;-23
2021/12/31 06:14:59;;;;;;;15.82;7.95;;;2.30;78.80;;;;;;5093876;28;20487;-24
2021/12/31 06:17:27;;;;;;;18.70;9.35;;;2.30;78.70;;;;;;5093837;28;20024;-24
2021/12/31 06:19:54;;;;;;;24.92;12.68;;;2.30;78.80;;;;;;5093575;28;20055;-24
2021/12/31 06:22:21;;;;;;;10.88;5.95;;;2.30;78.80;;;;;;5093737;28;20024;-24
2021/12/31 06:24:48;;;;;;;14.40;8.68;;;2.30;78.90;;;;;;5093581;28;20484;-24
2021/12/31 06:27:14;;;;;;;17.85;9.38;;;2.30;78.90;;;;;;5093657;28;20077;-24
2021/12/31 06:29:40;;;;;;;34.90;14.55;;;2.30;78.90;;;;;;5094248;28;20088;-23
2021/12/31 06:32:07;;;;;;;10.65;6.60;;;2.30;78.90;;;;;;5093861;28;20427;-23
2021/12/31 06:34:33;;;;;;;9.45;5.40;;;2.30;78.80;;;;;;5093851;28;20028;-23
2021/12/31 06:36:59;;;;;;;14.77;7.95;;;2.30;78.70;;;;;;5093843;28;20020;-23
2021/12/31 06:39:27;;;;;;;18.23;8.05;;;2.30;78.70;;;;;;5093408;28;20035;-23
2021/12/31 06:41:53;;;;;;;24.80;7.85;;;2.30;78.80;;;;;;5093484;28;20024;-23
2021/12/31 06:44:19;;;;;;;24.25;8.45;;;2.20;78.70;;;;;;5093114;28;20022;-23
2021/12/31 06:46:45;;;;;;;33.75;11.10;;;2.20;78.80;;;;;;5093654;28;20110;-23
2021/12/31 06:49:11;;;;;;;29.98;9.45;;;2.20;78.70;;;;;;5093240;28;20166;-23
2021/12/31 06:51:37;;;;;;;26.80;10.20;;;2.20;78.70;;;;;;5093217;28;20016;-22
2021/12/31 06:54:03;;;;;;;33.88;12.05;;;2.10;78.80;;;;;;5093205;28;20043;-23
2021/12/31 06:56:29;;;;;;;16.90;8.18;;;2.10;79.00;;;;;;5093565;28;20024;-23
2021/12/31 06:58:55;;;;;;;13.82;7.90;;;2.10;79.10;;;;;;5092703;28;20070;-23
2021/12/31 07:01:21;;;;;;;16.00;8.88;;;2.10;79.20;;;;;;5093923;28;20444;-23
2021/12/31 07:03:48;;;;;;;15.25;8.07;;;2.10;79.10;;;;;;5093408;28;20086;-23
2021/12/31 07:06:14;;;;;;;12.55;6.07;;;2.10;79.10;;;;;;5093482;28;20111;-23
2021/12/31 07:08:40;;;;;;;47.65;12.55;;;2.10;79.20;;;;;;5093445;28;20060;-23
2021/12/31 07:11:06;;;;;;;21.33;9.40;;;2.20;79.10;;;;;;5093425;28;20036;-23
2021/12/31 07:13:33;;;;;;;27.48;9.48;;;2.10;79.20;;;;;;5093283;28;20032;-23
2021/12/31 07:15:59;;;;;;;23.83;8.93;;;2.20;79.20;;;;;;5091871;28;20031;-23
2021/12/31 07:18:25;;;;;;;36.15;13.02;;;2.20;79.30;;;;;;5092828;28;20032;-23
2021/12/31 07:20:52;;;;;;;51.45;10.73;;;2.20;79.40;;;;;;5092987;28;20024;-22
2021/12/31 07:23:20;;;;;;;24.80;9.48;;;2.20;79.30;;;;;;5093324;28;20024;-22
2021/12/31 07:25:47;;;;;;;45.03;12.75;;;2.20;79.60;;;;;;5092928;28;20480;-22
2021/12/31 07:28:15;;;;;;;22.00;8.77;;;2.20;79.60;;;;;;5093071;28;20097;-26
2021/12/31 07:30:42;;;;;;;51.72;12.45;;;2.20;79.60;;;;;;5095763;28;20051;-22
2021/12/31 07:33:16;;;;;;;28.83;10.15;;;2.10;80.00;;;;;;5096907;28;20036;-22
2021/12/31 07:35:41;;;;;;;;;;;2.10;80.20;;;;;;5097341;28;20101;-23
2021/12/31 07:38:11;;;;;;;19.35;7.30;;;2.10;80.70;;;;;;5096936;28;19966;-23
2021/12/31 07:40:41;;;;;;;19.63;7.95;;;2.10;80.50;;;;;;5096946;28;20024;-23
2021/12/31 07:43:11;;;;;;;36.05;10.32;;;2.20;80.30;;;;;;5097133;28;20054;-23
2021/12/31 07:45:38;;;;;;;9.65;5.65;;;2.20;80.40;;;;;;5097037;28;20031;-23
2021/12/31 07:48:05;;;;;;;24.33;8.65;;;2.30;80.20;;;;;;5096615;28;20036;-23
2021/12/31 07:50:31;;;;;;;18.27;7.28;;;2.30;80.10;;;;;;5097507;28;20023;-23
2021/12/31 07:52:57;;;;;;;54.88;13.57;;;2.30;79.90;;;;;;5096028;28;20044;-23
2021/12/31 07:55:23;;;;;;;37.67;10.40;;;2.40;80.00;;;;;;5097167;28;20031;-23
2021/12/31 07:57:49;;;;;;;30.60;9.40;;;2.40;79.80;;;;;;5096740;28;20028;-23
2021/12/31 08:00:16;;;;;;;14.88;7.93;;;2.40;79.90;;;;;;5096122;28;20082;-23
2021/12/31 08:02:42;;;;;;;33.70;9.57;;;2.40;80.10;;;;;;5096768;28;20565;-23
2021/12/31 08:05:08;;;;;;;42.38;13.55;;;2.40;80.20;;;;;;5096554;28;20032;-23
2021/12/31 08:07:34;;;;;;;16.58;8.70;;;2.40;80.00;;;;;;5096399;28;20024;-22
2021/12/31 08:10:02;;;;;;;25.17;9.30;;;2.40;80.20;;;;;;5096301;28;20077;-23
2021/12/31 08:12:29;;;;;;;21.75;7.80;;;2.50;80.30;;;;;;5095933;28;20032;-23
2021/12/31 08:14:56;;;;;;;51.60;13.40;;;2.50;80.00;;;;;;5096195;28;20032;-23
2021/12/31 08:17:22;;;;;;;20.10;7.22;;;2.60;80.50;;;;;;5096350;28;20476;-23
2021/12/31 08:19:48;;;;;;;24.70;9.55;;;2.60;80.20;;;;;;5095976;28;20528;-23
2021/12/31 08:22:14;;;;;;;16.90;7.05;;;2.70;80.30;;;;;;5095894;28;20118;-24
2021/12/31 08:24:40;;;;;;;38.67;12.32;;;2.80;80.10;;;;;;5096250;28;20024;-22
2021/12/31 08:27:06;;;;;;;23.52;10.32;;;2.80;80.40;;;;;;5095961;28;20394;-23
2021/12/31 08:29:32;;;;;;;9.05;6.28;;;2.90;80.30;;;;;;5096090;28;20028;-23
2021/12/31 08:31:58;;;;;;;8.70;4.85;;;2.90;79.90;;;;;;5096037;28;20476;-22
2021/12/31 08:34:24;;;;;;;13.90;8.73;;;3.00;79.80;;;;;;5095773;28;20107;-24
2021/12/31 08:36:50;;;;;;;17.60;9.60;;;3.10;79.90;;;;;;5095742;28;20391;-23
2021/12/31 08:39:16;;;;;;;16.80;9.05;;;3.10;79.90;;;;;;5095714;28;20471;-24
2021/12/31 08:41:42;;;;;;;10.63;6.95;;;3.20;79.90;;;;;;5095032;28;20035;-23
2021/12/31 08:44:08;;;;;;;10.60;7.03;;;3.20;79.90;;;;;;5094370;28;20024;-23
2021/12/31 08:46:36;;;;;;;11.63;7.93;;;3.30;79.80;;;;;;5095374;28;20063;-23
2021/12/31 08:49:03;;;;;;;6.97;4.35;;;3.50;79.60;;;;;;5095414;28;20078;-23
2021/12/31 08:51:29;;;;;;;11.77;6.78;;;3.60;79.40;;;;;;5095800;28;20028;-23
2021/12/31 08:53:56;;;;;;;11.25;7.20;;;3.80;79.30;;;;;;5095188;28;20066;-23
2021/12/31 08:56:22;;;;;;;16.23;9.27;;;3.90;79.10;;;;;;5095692;28;20032;-23
2021/12/31 08:58:48;;;;;;;14.95;10.73;;;4.00;78.90;;;;;;5094100;28;20036;-23
2021/12/31 09:01:14;;;;;;;13.05;8.80;;;4.20;78.80;;;;;;5095670;28;20028;-22
2021/12/31 09:03:40;;;;;;;13.68;9.40;;;4.30;78.50;;;;;;5095154;28;20021;-23
2021/12/31 09:06:07;;;;;;;17.23;10.85;;;4.40;78.40;;;;;;5095113;28;20028;-23
2021/12/31 09:08:34;;;;;;;14.77;9.30;;;4.50;78.10;;;;;;5095329;28;20040;-23
2021/12/31 09:11:01;;;;;;;16.88;9.65;;;4.60;78.00;;;;;;5095424;28;20032;-22
2021/12/31 09:13:28;;;;;;;11.52;7.00;;;4.70;77.80;;;;;;5095162;28;20046;-22
2021/12/31 09:15:55;;;;;;;17.27;11.52;;;4.80;77.80;;;;;;5095461;28;20080;-23
2021/12/31 09:18:21;;;;;;;14.25;8.13;;;4.90;77.70;;;;;;5094856;28;20020;-22
2021/12/31 09:20:52;;;;;;;10.68;6.10;;;4.90;77.40;;;;;;5094787;28;20024;-23
2021/12/31 09:23:19;;;;;;;11.32;7.55;;;5.00;77.40;;;;;;5095143;28;20020;-23
2021/12/31 09:25:45;;;;;;;21.02;13.70;;;5.10;77.40;;;;;;5093518;28;20040;-23
2021/12/31 09:28:11;;;;;;;12.55;8.15;;;5.30;77.20;;;;;;5095055;28;20026;-23
2021/12/31 09:30:37;;;;;;;11.52;7.82;;;5.40;77.20;;;;;;5093294;28;20114;-23
2021/12/31 09:33:03;;;;;;;15.43;10.00;;;5.50;77.00;;;;;;5094787;28;20031;-23
2021/12/31 09:35:31;;;;;;;12.82;9.02;;;5.70;77.00;;;;;;5094510;28;20024;-23
2021/12/31 09:37:57;;;;;;;18.83;11.98;;;5.90;77.00;;;;;;5094897;28;20052;-24
2021/12/31 09:40:23;;;;;;;8.13;5.20;;;6.10;76.90;;;;;;5094359;28;20444;-24
2021/12/31 09:43:11;;;;;;;7.82;5.05;;;6.30;76.50;;;;;;5094459;28;20476;-23
2021/12/31 09:45:39;;;;;;;7.13;4.90;;;6.60;76.20;;;;;;5094795;28;20027;-24
2021/12/31 09:48:13;;;;;;;12.13;8.82;;;6.90;75.80;;;;;;5094422;28;20020;-23
2021/12/31 09:50:42;;;;;;;10.60;6.57;;;7.20;75.40;;;;;;5094214;28;20028;-23
2021/12/31 09:53:10;;;;;;;12.02;7.25;;;7.50;75.20;;;;;;5093015;28;20040;-23
2021/12/31 09:55:53;;;;;;;12.75;8.70;;;7.80;75.00;;;;;;5094155;28;20507;-23
2021/12/31 09:58:21;;;;;;;12.95;8.57;;;8.20;74.10;;;;;;5094340;28;20031;-24
2021/12/31 10:00:53;;;;;;;11.30;7.18;;;8.50;73.80;;;;;;5094468;28;20031;-23
2021/12/31 10:03:25;;;;;;;13.95;8.40;;;8.80;72.40;;;;;;5094459;28;20028;-23
2021/12/31 10:05:54;;;;;;;12.70;7.25;;;9.00;72.60;;;;;;5093992;28;20027;-22
2021/12/31 10:08:20;;;;;;;12.30;7.03;;;9.30;72.10;;;;;;5092655;28;20118;-23
2021/12/31 10:11:17;;;;;;;13.13;8.50;;;9.50;72.00;;;;;;5094003;28;20063;-22
2021/12/31 10:13:47;;;;;;;15.98;11.02;;;9.80;71.70;;;;;;5094151;28;20032;-23
2021/12/31 10:16:26;;;;;;;13.57;9.23;;;9.90;70.90;;;;;;5092514;28;20016;-24
2021/12/31 10:19:18;;;;;;;15.93;11.10;;;10.20;70.50;;;;;;5094002;28;20024;-22
2021/12/31 10:21:51;;;;;;;15.25;10.32;;;10.40;70.60;;;;;;5093830;28;20020;-23
2021/12/31 10:24:36;;;;;;;15.10;10.10;;;10.60;69.40;;;;;;5093834;28;20146;-23
2021/12/31 10:27:09;;;;;;;16.92;12.07;;;10.70;69.30;;;;;;5093758;28;20027;-23
2021/12/31 10:30:11;;;;;;;12.35;8.88;;;10.80;69.30;;;;;;5094006;28;20052;-23
2021/12/31 10:32:41;;;;;;;10.88;7.85;;;10.90;68.70;;;;;;5091467;28;20036;-22
2021/12/31 10:35:09;;;;;;;9.18;6.63;;;11.00;69.80;;;;;;5074544;28;20024;-23
2021/12/31 10:37:45;;;;;;;9.55;7.18;;;11.10;70.00;;;;;;5091417;28;20542;-22
2021/12/31 10:40:24;;;;;;;10.85;7.25;;;11.30;69.90;;;;;;5091517;28;20032;-23
2021/12/31 10:43:08;;;;;;;10.68;8.00;;;11.50;69.80;;;;;;5091448;28;20495;-22
2021/12/31 10:45:34;;;;;;;19.52;13.93;;;11.90;69.60;;;;;;5091275;28;20509;-22
2021/12/31 10:48:08;;;;;;;10.88;6.47;;;12.10;69.10;;;;;;5091302;28;20500;-22
2021/12/31 10:50:35;;;;;;;19.15;14.23;;;12.30;68.50;;;;;;5090997;28;20035;-22
2021/12/31 10:53:09;;;;;;;13.93;10.88;;;12.50;68.30;;;;;;5091282;28;20032;-23
2021/12/31 10:55:39;;;;;;;12.52;9.35;;;12.70;67.70;;;;;;5091279;28;20040;-22
2021/12/31 10:58:11;;;;;;;19.05;15.25;;;12.90;67.70;;;;;;5091226;28;20031;-22
2021/12/31 11:00:41;;;;;;;17.80;13.63;;;13.30;66.50;;;;;;5091894;28;20040;-22
2021/12/31 11:03:08;;;;;;;13.45;9.43;;;13.60;65.80;;;;;;5091146;28;20020;-22
2021/12/31 11:05:34;;;;;;;15.18;8.02;;;13.90;65.10;;;;;;5090968;28;20024;-22
2021/12/31 11:08:07;;;;;;;19.98;14.23;;;14.10;65.10;;;;;;5093484;28;20051;-22
2021/12/31 11:10:37;;;;;;;15.93;12.07;;;14.40;64.40;;;;;;5093008;28;20032;-22
2021/12/31 11:13:16;;;;;;;14.30;10.98;;;14.50;63.60;;;;;;5093040;28;20492;-22
2021/12/31 11:15:45;;;;;;;18.67;14.18;;;14.50;63.50;;;;;;5093160;28;20021;-22
2021/12/31 11:18:12;;;;;;;14.05;10.48;;;14.70;62.80;;;;;;5093365;28;20110;-22
2021/12/31 11:20:39;;;;;;;14.82;11.15;;;14.80;62.90;;;;;;5092956;28;20099;-22
2021/12/31 11:23:05;;;;;;;20.88;15.23;;;15.00;61.60;;;;;;5093279;28;20035;-22
2021/12/31 11:25:31;;;;;;;13.57;10.35;;;15.30;62.50;;;;;;5093353;28;20032;-22
2021/12/31 11:27:59;;;;;;;15.77;10.98;;;15.50;62.00;;;;;;5092901;28;20028;-22
2021/12/31 11:30:38;;;;;;;18.25;12.70;;;15.90;61.00;;;;;;5092858;28;20558;-22
2021/12/31 11:33:20;;;;;;;16.60;12.40;;;16.10;60.50;;;;;;5093156;28;20036;-22
2021/12/31 11:36:05;;;;;;;19.00;14.13;;;16.40;60.30;;;;;;5092873;28;20028;-23
2021/12/31 11:38:31;;;;;;;13.20;9.63;;;16.80;59.40;;;;;;5092718;28;20108;-22
2021/12/31 11:41:21;;;;;;;15.27;10.65;;;17.20;58.30;;;;;;5093106;28;20114;-22
2021/12/31 11:44:06;;;;;;;16.80;12.90;;;17.50;58.50;;;;;;5093032;28;20024;-22
2021/12/31 11:46:41;;;;;;;22.02;16.55;;;17.90;56.20;;;;;;5093017;28;20039;-23
2021/12/31 11:49:28;;;;;;;18.95;15.25;;;18.20;56.50;;;;;;5092818;28;20027;-22
2021/12/31 11:52:02;;;;;;;18.27;14.68;;;18.50;55.50;;;;;;5092835;28;20028;-22
2021/12/31 11:54:30;;;;;;;20.63;15.57;;;18.90;54.80;;;;;;5092586;28;20039;-23
2021/12/31 11:56:59;;;;;;;15.45;12.38;;;19.20;54.10;;;;;;5092721;28;20027;-22
2021/12/31 11:59:52;;;;;;;18.58;14.88;;;19.50;53.90;;;;;;5092734;28;20028;-22
2021/12/31 12:02:32;;;;;;;18.55;13.88;;;19.80;53.10;;;;;;5092594;28;20016;-22
2021/12/31 12:05:07;;;;;;;13.40;8.88;;;20.00;51.90;;;;;;5093051;28;20111;-23
2021/12/31 12:07:38;;;;;;;13.68;10.48;;;20.30;52.20;;;;;;5092956;28;20035;-22
2021/12/31 12:10:04;;;;;;;15.98;12.45;;;20.60;51.70;;;;;;5092635;28;20503;-22
2021/12/31 12:12:34;;;;;;;18.08;13.82;;;20.90;51.00;;;;;;5092360;28;20024;-22
2021/12/31 12:15:03;;;;;;;11.45;9.35;;;21.10;50.60;;;;;;5092578;28;20027;-23
2021/12/31 12:17:29;;;;;;;16.25;12.55;;;21.30;50.20;;;;;;5094760;28;20021;-23
2021/12/31 12:20:01;;;;;;;14.07;10.95;;;21.60;49.30;;;;;;5096321;28;20039;-22
2021/12/31 12:22:57;;;;;;;15.32;12.07;;;21.80;49.00;;;;;;5096650;28;20027;-22
2021/12/31 12:25:31;;;;;;;13.40;10.63;;;21.90;48.20;;;;;;5095615;28;20502;-22
2021/12/31 12:28:06;;;;;;;12.38;9.85;;;22.20;48.60;;;;;;5095957;28;20394;-22
2021/12/31 12:30:42;;;;;;;10.48;8.30;;;22.40;48.20;;;;;;5095759;28;20028;-22
2021/12/31 12:35:39;;;;;;;15.65;12.75;;;22.70;47.70;;;;;;5095651;28;20028;-23
2021/12/31 12:38:19;;;;;;;16.90;14.10;;;22.90;47.50;;;;;;5094632;28;20109;-22
2021/12/31 12:40:55;;;;;;;20.83;16.85;;;22.90;46.70;;;;;;5095754;28;20036;-22
2021/12/31 12:43:26;;;;;;;16.90;13.18;;;22.90;47.00;;;;;;5096561;28;20035;-22
2021/12/31 12:45:55;;;;;;;14.05;10.32;;;22.60;47.20;;;;;;5095604;28;20115;-22
2021/12/31 12:48:42;;;;;;;17.58;14.55;;;22.30;48.00;;;;;;5095706;28;20036;-22
2021/12/31 12:51:11;;;;;;;16.13;13.23;;;21.90;47.70;;;;;;5095463;28;20383;-22
2021/12/31 12:53:43;;;;;;;17.02;13.65;;;21.50;48.60;;;;;;5095127;28;20048;-22
2021/12/31 12:56:10;;;;;;;15.65;12.95;;;21.10;48.90;;;;;;5095437;28;20380;-22
2021/12/31 12:58:54;;;;;;;13.25;10.25;;;20.90;49.10;;;;;;5095162;28;20036;-22